sensor_id;sensor_type;location;lat;lon;timestamp;temperature;humidity
40534;DHT22;26233;51.894;10.192;2024-03-08T00:00:06;3.80;41.00
40534;DHT22;26233;51.894;10.192;2024-03-08T00:02:39;3.80;41.00
40534;DHT22;26233;51.894;10.192;2024-03-08T00:05:08;3.80;41.00
40534;DHT22;26233;51.894;10.192;2024-03-08T00:07:35;3.60;40.80
40534;DHT22;26233;51.894;10.192;2024-03-08T00:10:03;3.80;41.00
40534;DHT22;26233;51.894;10.192;2024-03-08T00:12:31;3.80;41.00
40534;DHT22;26233;51.894;10.192;2024-03-08T00:14:58;3.80;41.00
40534;DHT22;26233;51.894;10.192;2024-03-08T00:17:25;3.80;40.90
40534;DHT22;26233;51.894;10.192;2024-03-08T00:19:54;3.80;40.90
40534;DHT22;26233;51.894;10.192;2024-03-08T00:22:23;3.80;40.90
40534;DHT22;26233;51.894;10.192;2024-03-08T00:24:51;3.80;40.90
40534;DHT22;26233;51.894;10.192;2024-03-08T00:27:18;3.70;41.00
40534;DHT22;26233;51.894;10.192;2024-03-08T00:29:46;3.70;40.90
40534;DHT22;26233;51.894;10.192;2024-03-08T00:32:14;3.70;40.90
40534;DHT22;26233;51.894;10.192;2024-03-08T00:34:42;3.70;41.00
40534;DHT22;26233;51.894;10.192;2024-03-08T00:37:11;3.70;41.00
40534;DHT22;26233;51.894;10.192;2024-03-08T00:39:38;3.60;40.90
40534;DHT22;26233;51.894;10.192;2024-03-08T00:42:06;3.60;41.00
40534;DHT22;26233;51.894;10.192;2024-03-08T00:44:34;3.60;41.00
40534;DHT22;26233;51.894;10.192;2024-03-08T00:47:01;3.60;40.80
40534;DHT22;26233;51.894;10.192;2024-03-08T00:49:28;3.50;40.90
40534;DHT22;26233;51.894;10.192;2024-03-08T00:51:56;3.50;40.90
40534;DHT22;26233;51.894;10.192;2024-03-08T00:54:25;3.50;41.00
40534;DHT22;26233;51.894;10.192;2024-03-08T00:56:52;3.50;41.10
40534;DHT22;26233;51.894;10.192;2024-03-08T00:59:19;3.50;41.00
40534;DHT22;26233;51.894;10.192;2024-03-08T01:01:46;3.50;41.00
40534;DHT22;26233;51.894;10.192;2024-03-08T01:04:13;3.40;41.00
40534;DHT22;26233;51.894;10.192;2024-03-08T01:06:41;3.40;41.00
40534;DHT22;26233;51.894;10.192;2024-03-08T01:09:11;3.40;41.00
40534;DHT22;26233;51.894;10.192;2024-03-08T01:11:40;3.40;41.00
40534;DHT22;26233;51.894;10.192;2024-03-08T01:14:08;3.40;41.00
40534;DHT22;26233;51.894;10.192;2024-03-08T01:16:35;3.30;40.90
40534;DHT22;26233;51.894;10.192;2024-03-08T01:19:02;3.30;40.90
40534;DHT22;26233;51.894;10.192;2024-03-08T01:21:30;3.30;41.00
40534;DHT22;26233;51.894;10.192;2024-03-08T01:23:57;3.30;41.00
40534;DHT22;26233;51.894;10.192;2024-03-08T01:26:24;3.20;40.90
40534;DHT22;26233;51.894;10.192;2024-03-08T01:28:52;3.20;40.90
40534;DHT22;26233;51.894;10.192;2024-03-08T01:31:19;3.20;40.90
40534;DHT22;26233;51.894;10.192;2024-03-08T01:33:46;3.10;40.90
40534;DHT22;26233;51.894;10.192;2024-03-08T01:36:14;3.10;40.90
40534;DHT22;26233;51.894;10.192;2024-03-08T01:38:42;3.10;41.00
40534;DHT22;26233;51.894;10.192;2024-03-08T01:41:09;3.00;41.00
40534;DHT22;26233;51.894;10.192;2024-03-08T01:43:38;3.10;41.20
40534;DHT22;26233;51.894;10.192;2024-03-08T01:46:07;3.10;41.80
40534;DHT22;26233;51.894;10.192;2024-03-08T01:48:36;3.10;41.20
40534;DHT22;26233;51.894;10.192;2024-03-08T01:51:05;3.10;41.20
40534;DHT22;26233;51.894;10.192;2024-03-08T01:53:33;3.00;41.10
40534;DHT22;26233;51.894;10.192;2024-03-08T01:56:02;3.00;41.00
40534;DHT22;26233;51.894;10.192;2024-03-08T01:58:30;3.00;41.00
40534;DHT22;26233;51.894;10.192;2024-03-08T02:00:59;3.00;41.00
40534;DHT22;26233;51.894;10.192;2024-03-08T02:03:31;2.90;41.00
40534;DHT22;26233;51.894;10.192;2024-03-08T02:05:58;2.90;41.00
40534;DHT22;26233;51.894;10.192;2024-03-08T02:08:26;2.90;41.10
40534;DHT22;26233;51.894;10.192;2024-03-08T02:10:53;2.90;41.10
40534;DHT22;26233;51.894;10.192;2024-03-08T02:13:20;2.90;41.20
40534;DHT22;26233;51.894;10.192;2024-03-08T02:15:51;2.90;41.20
40534;DHT22;26233;51.894;10.192;2024-03-08T02:18:19;2.90;41.20
40534;DHT22;26233;51.894;10.192;2024-03-08T02:20:49;2.80;41.20
40534;DHT22;26233;51.894;10.192;2024-03-08T02:23:17;2.80;41.10
40534;DHT22;26233;51.894;10.192;2024-03-08T02:25:45;2.80;41.10
40534;DHT22;26233;51.894;10.192;2024-03-08T02:28:13;2.80;41.10
40534;DHT22;26233;51.894;10.192;2024-03-08T02:30:41;2.80;41.20
40534;DHT22;26233;51.894;10.192;2024-03-08T02:33:09;2.70;41.30
40534;DHT22;26233;51.894;10.192;2024-03-08T02:35:36;2.70;41.10
40534;DHT22;26233;51.894;10.192;2024-03-08T02:38:05;2.70;41.20
40534;DHT22;26233;51.894;10.192;2024-03-08T02:40:32;2.70;41.20
40534;DHT22;26233;51.894;10.192;2024-03-08T02:42:59;2.70;41.20
40534;DHT22;26233;51.894;10.192;2024-03-08T02:45:27;2.70;41.20
40534;DHT22;26233;51.894;10.192;2024-03-08T02:47:54;2.70;41.20
40534;DHT22;26233;51.894;10.192;2024-03-08T02:50:21;2.70;41.20
40534;DHT22;26233;51.894;10.192;2024-03-08T02:52:51;2.60;41.10
40534;DHT22;26233;51.894;10.192;2024-03-08T02:55:19;2.60;41.10
40534;DHT22;26233;51.894;10.192;2024-03-08T02:57:47;2.60;41.10
40534;DHT22;26233;51.894;10.192;2024-03-08T03:00:14;2.60;41.10
40534;DHT22;26233;51.894;10.192;2024-03-08T03:02:41;2.50;41.10
40534;DHT22;26233;51.894;10.192;2024-03-08T03:05:09;2.50;41.20
40534;DHT22;26233;51.894;10.192;2024-03-08T03:07:37;2.50;41.20
40534;DHT22;26233;51.894;10.192;2024-03-08T03:10:05;2.50;41.30
40534;DHT22;26233;51.894;10.192;2024-03-08T03:12:35;2.50;41.30
40534;DHT22;26233;51.894;10.192;2024-03-08T03:15:02;2.50;41.30
40534;DHT22;26233;51.894;10.192;2024-03-08T03:17:30;2.50;41.40
40534;DHT22;26233;51.894;10.192;2024-03-08T03:19:57;2.50;41.30
40534;DHT22;26233;51.894;10.192;2024-03-08T03:22:24;2.50;41.40
40534;DHT22;26233;51.894;10.192;2024-03-08T03:24:52;2.50;41.30
40534;DHT22;26233;51.894;10.192;2024-03-08T03:27:19;2.50;41.30
40534;DHT22;26233;51.894;10.192;2024-03-08T03:29:48;2.40;41.20
40534;DHT22;26233;51.894;10.192;2024-03-08T03:32:15;2.40;41.30
40534;DHT22;26233;51.894;10.192;2024-03-08T03:34:44;2.50;41.70
40534;DHT22;26233;51.894;10.192;2024-03-08T03:37:11;2.50;41.70
40534;DHT22;26233;51.894;10.192;2024-03-08T03:39:39;2.50;41.70
40534;DHT22;26233;51.894;10.192;2024-03-08T03:42:14;2.60;41.70
40534;DHT22;26233;51.894;10.192;2024-03-08T03:44:43;2.60;41.70
40534;DHT22;26233;51.894;10.192;2024-03-08T03:47:12;2.70;41.70
40534;DHT22;26233;51.894;10.192;2024-03-08T03:49:40;2.70;41.60
40534;DHT22;26233;51.894;10.192;2024-03-08T03:52:07;2.70;41.60
40534;DHT22;26233;51.894;10.192;2024-03-08T03:54:34;2.70;41.50
40534;DHT22;26233;51.894;10.192;2024-03-08T03:57:02;2.70;41.50
40534;DHT22;26233;51.894;10.192;2024-03-08T03:59:30;2.70;41.60
40534;DHT22;26233;51.894;10.192;2024-03-08T04:01:57;2.80;41.70
40534;DHT22;26233;51.894;10.192;2024-03-08T04:04:25;2.80;41.70
40534;DHT22;26233;51.894;10.192;2024-03-08T04:06:52;2.80;41.70
40534;DHT22;26233;51.894;10.192;2024-03-08T04:09:20;2.80;41.70
40534;DHT22;26233;51.894;10.192;2024-03-08T04:11:48;2.80;41.60
40534;DHT22;26233;51.894;10.192;2024-03-08T04:14:15;2.80;41.50
40534;DHT22;26233;51.894;10.192;2024-03-08T04:16:42;2.80;41.50
40534;DHT22;26233;51.894;10.192;2024-03-08T04:19:10;2.80;41.40
40534;DHT22;26233;51.894;10.192;2024-03-08T04:21:38;2.60;41.20
40534;DHT22;26233;51.894;10.192;2024-03-08T04:24:06;2.70;41.40
40534;DHT22;26233;51.894;10.192;2024-03-08T04:26:34;2.70;41.30
40534;DHT22;26233;51.894;10.192;2024-03-08T04:29:01;2.70;41.40
40534;DHT22;26233;51.894;10.192;2024-03-08T04:31:29;2.60;41.40
40534;DHT22;26233;51.894;10.192;2024-03-08T04:33:57;2.70;41.50
40534;DHT22;26233;51.894;10.192;2024-03-08T04:36:25;2.60;41.50
40534;DHT22;26233;51.894;10.192;2024-03-08T04:38:53;2.60;41.40
40534;DHT22;26233;51.894;10.192;2024-03-08T04:41:20;2.60;41.40
40534;DHT22;26233;51.894;10.192;2024-03-08T04:43:49;2.60;41.40
40534;DHT22;26233;51.894;10.192;2024-03-08T04:46:16;2.60;41.40
40534;DHT22;26233;51.894;10.192;2024-03-08T04:48:43;2.60;41.50
40534;DHT22;26233;51.894;10.192;2024-03-08T04:51:10;2.60;41.50
40534;DHT22;26233;51.894;10.192;2024-03-08T04:53:38;2.60;41.50
40534;DHT22;26233;51.894;10.192;2024-03-08T04:56:06;2.60;41.60
40534;DHT22;26233;51.894;10.192;2024-03-08T04:58:35;2.70;41.70
40534;DHT22;26233;51.894;10.192;2024-03-08T05:01:03;2.60;41.60
40534;DHT22;26233;51.894;10.192;2024-03-08T05:03:30;2.70;41.70
40534;DHT22;26233;51.894;10.192;2024-03-08T05:05:58;2.80;41.80
40534;DHT22;26233;51.894;10.192;2024-03-08T05:08:25;2.80;41.80
40534;DHT22;26233;51.894;10.192;2024-03-08T05:10:52;2.80;41.70
40534;DHT22;26233;51.894;10.192;2024-03-08T05:13:20;2.90;41.70
40534;DHT22;26233;51.894;10.192;2024-03-08T05:15:48;2.90;41.70
40534;DHT22;26233;51.894;10.192;2024-03-08T05:18:16;2.90;41.50
40534;DHT22;26233;51.894;10.192;2024-03-08T05:20:43;2.80;41.30
40534;DHT22;26233;51.894;10.192;2024-03-08T05:23:10;2.80;41.20
40534;DHT22;26233;51.894;10.192;2024-03-08T05:25:38;2.70;41.20
40534;DHT22;26233;51.894;10.192;2024-03-08T05:28:07;2.70;41.20
40534;DHT22;26233;51.894;10.192;2024-03-08T05:30:35;2.60;41.20
40534;DHT22;26233;51.894;10.192;2024-03-08T05:33:05;2.60;41.40
40534;DHT22;26233;51.894;10.192;2024-03-08T05:35:35;2.50;41.20
40534;DHT22;26233;51.894;10.192;2024-03-08T05:38:03;2.50;41.20
40534;DHT22;26233;51.894;10.192;2024-03-08T05:40:30;2.50;41.30
40534;DHT22;26233;51.894;10.192;2024-03-08T05:42:58;2.50;41.30
40534;DHT22;26233;51.894;10.192;2024-03-08T05:45:26;2.40;41.30
40534;DHT22;26233;51.894;10.192;2024-03-08T05:47:54;2.40;41.50
40534;DHT22;26233;51.894;10.192;2024-03-08T05:50:22;2.40;41.60
40534;DHT22;26233;51.894;10.192;2024-03-08T05:52:49;2.40;42.20
40534;DHT22;26233;51.894;10.192;2024-03-08T05:55:16;2.40;41.70
40534;DHT22;26233;51.894;10.192;2024-03-08T05:57:43;2.50;41.80
40534;DHT22;26233;51.894;10.192;2024-03-08T06:00:11;2.50;41.80
40534;DHT22;26233;51.894;10.192;2024-03-08T06:02:41;2.50;41.80
40534;DHT22;26233;51.894;10.192;2024-03-08T06:05:10;2.60;42.00
40534;DHT22;26233;51.894;10.192;2024-03-08T06:07:38;2.60;42.10
40534;DHT22;26233;51.894;10.192;2024-03-08T06:10:07;2.70;42.20
40534;DHT22;26233;51.894;10.192;2024-03-08T06:12:36;2.70;42.30
40534;DHT22;26233;51.894;10.192;2024-03-08T06:15:07;2.80;42.30
40534;DHT22;26233;51.894;10.192;2024-03-08T06:17:35;2.90;42.30
40534;DHT22;26233;51.894;10.192;2024-03-08T06:20:03;3.00;42.40
40534;DHT22;26233;51.894;10.192;2024-03-08T06:22:37;3.00;42.30
40534;DHT22;26233;51.894;10.192;2024-03-08T06:25:07;3.10;42.30
40534;DHT22;26233;51.894;10.192;2024-03-08T06:27:34;3.20;42.30
40534;DHT22;26233;51.894;10.192;2024-03-08T06:30:01;3.30;42.30
40534;DHT22;26233;51.894;10.192;2024-03-08T06:32:30;3.30;42.20
40534;DHT22;26233;51.894;10.192;2024-03-08T06:35:01;3.30;42.10
40534;DHT22;26233;51.894;10.192;2024-03-08T06:37:30;3.40;42.10
40534;DHT22;26233;51.894;10.192;2024-03-08T06:39:58;3.30;41.80
40534;DHT22;26233;51.894;10.192;2024-03-08T06:42:26;3.30;41.80
40534;DHT22;26233;51.894;10.192;2024-03-08T06:44:53;3.30;41.80
40534;DHT22;26233;51.894;10.192;2024-03-08T06:47:25;3.30;42.00
40534;DHT22;26233;51.894;10.192;2024-03-08T06:49:52;3.30;42.40
40534;DHT22;26233;51.894;10.192;2024-03-08T06:52:19;3.40;42.70
40534;DHT22;26233;51.894;10.192;2024-03-08T06:54:47;3.60;43.20
40534;DHT22;26233;51.894;10.192;2024-03-08T06:57:16;3.80;43.60
40534;DHT22;26233;51.894;10.192;2024-03-08T06:59:43;4.10;43.80
40534;DHT22;26233;51.894;10.192;2024-03-08T07:02:10;4.30;43.70
40534;DHT22;26233;51.894;10.192;2024-03-08T07:04:37;4.50;43.60
40534;DHT22;26233;51.894;10.192;2024-03-08T07:07:05;4.70;43.50
40534;DHT22;26233;51.894;10.192;2024-03-08T07:09:35;4.90;43.50
40534;DHT22;26233;51.894;10.192;2024-03-08T07:12:02;5.00;43.30
40534;DHT22;26233;51.894;10.192;2024-03-08T07:14:31;5.20;43.40
40534;DHT22;26233;51.894;10.192;2024-03-08T07:16:58;5.40;43.40
40534;DHT22;26233;51.894;10.192;2024-03-08T07:19:25;5.50;43.30
40534;DHT22;26233;51.894;10.192;2024-03-08T07:21:53;5.60;43.10
40534;DHT22;26233;51.894;10.192;2024-03-08T07:24:21;5.70;43.10
40534;DHT22;26233;51.894;10.192;2024-03-08T07:27:05;5.80;43.20
40534;DHT22;26233;51.894;10.192;2024-03-08T07:29:34;5.90;43.30
40534;DHT22;26233;51.894;10.192;2024-03-08T07:32:01;6.00;43.40
40534;DHT22;26233;51.894;10.192;2024-03-08T07:34:43;6.10;43.50
40534;DHT22;26233;51.894;10.192;2024-03-08T07:37:10;6.40;43.70
40534;DHT22;26233;51.894;10.192;2024-03-08T07:39:38;6.60;44.00
40534;DHT22;26233;51.894;10.192;2024-03-08T07:42:05;6.80;44.10
40534;DHT22;26233;51.894;10.192;2024-03-08T07:44:34;7.00;44.10
40534;DHT22;26233;51.894;10.192;2024-03-08T07:47:01;7.20;44.20
40534;DHT22;26233;51.894;10.192;2024-03-08T07:49:29;7.40;44.40
40534;DHT22;26233;51.894;10.192;2024-03-08T07:51:56;7.70;44.80
40534;DHT22;26233;51.894;10.192;2024-03-08T07:54:23;8.00;44.60
40534;DHT22;26233;51.894;10.192;2024-03-08T07:56:51;8.30;44.40
40534;DHT22;26233;51.894;10.192;2024-03-08T07:59:19;8.50;44.30
40534;DHT22;26233;51.894;10.192;2024-03-08T08:01:48;8.80;44.70
40534;DHT22;26233;51.894;10.192;2024-03-08T08:04:15;9.10;45.20
40534;DHT22;26233;51.894;10.192;2024-03-08T08:06:43;9.50;45.70
40534;DHT22;26233;51.894;10.192;2024-03-08T08:09:11;10.00;45.20
40534;DHT22;26233;51.894;10.192;2024-03-08T08:11:40;10.50;45.70
40534;DHT22;26233;51.894;10.192;2024-03-08T08:14:09;11.10;46.20
40534;DHT22;26233;51.894;10.192;2024-03-08T08:16:36;11.80;46.20
40534;DHT22;26233;51.894;10.192;2024-03-08T08:19:05;12.40;46.50
40534;DHT22;26233;51.894;10.192;2024-03-08T08:21:34;13.00;46.20
40534;DHT22;26233;51.894;10.192;2024-03-08T08:24:02;13.60;46.30
40534;DHT22;26233;51.894;10.192;2024-03-08T08:26:30;14.10;46.10
40534;DHT22;26233;51.894;10.192;2024-03-08T08:28:58;14.70;45.70
40534;DHT22;26233;51.894;10.192;2024-03-08T08:31:26;15.10;45.00
40534;DHT22;26233;51.894;10.192;2024-03-08T08:33:53;15.40;44.10
40534;DHT22;26233;51.894;10.192;2024-03-08T08:36:25;15.60;43.50
40534;DHT22;26233;51.894;10.192;2024-03-08T08:38:55;15.70;42.50
40534;DHT22;26233;51.894;10.192;2024-03-08T08:41:24;15.80;42.20
40534;DHT22;26233;51.894;10.192;2024-03-08T08:43:51;15.80;41.60
40534;DHT22;26233;51.894;10.192;2024-03-08T08:46:19;15.60;40.70
40534;DHT22;26233;51.894;10.192;2024-03-08T08:48:47;15.30;39.60
40534;DHT22;26233;51.894;10.192;2024-03-08T08:51:14;15.00;39.40
40534;DHT22;26233;51.894;10.192;2024-03-08T08:53:43;14.60;38.90
40534;DHT22;26233;51.894;10.192;2024-03-08T08:56:11;14.40;39.10
40534;DHT22;26233;51.894;10.192;2024-03-08T08:58:39;14.10;39.20
40534;DHT22;26233;51.894;10.192;2024-03-08T09:01:06;14.00;39.60
40534;DHT22;26233;51.894;10.192;2024-03-08T09:03:35;13.90;39.80
40534;DHT22;26233;51.894;10.192;2024-03-08T09:06:03;13.90;40.00
40534;DHT22;26233;51.894;10.192;2024-03-08T09:08:31;13.90;40.60
40534;DHT22;26233;51.894;10.192;2024-03-08T09:11:01;13.90;40.00
40534;DHT22;26233;51.894;10.192;2024-03-08T09:13:28;13.80;39.30
40534;DHT22;26233;51.894;10.192;2024-03-08T09:15:56;13.80;39.10
40534;DHT22;26233;51.894;10.192;2024-03-08T09:18:23;13.80;39.80
40534;DHT22;26233;51.894;10.192;2024-03-08T09:20:50;13.90;40.30
40534;DHT22;26233;51.894;10.192;2024-03-08T09:23:19;14.10;41.20
40534;DHT22;26233;51.894;10.192;2024-03-08T09:25:47;14.40;41.50
40534;DHT22;26233;51.894;10.192;2024-03-08T09:28:15;14.70;41.90
40534;DHT22;26233;51.894;10.192;2024-03-08T09:30:43;15.00;41.00
40534;DHT22;26233;51.894;10.192;2024-03-08T09:33:10;15.20;41.00
40534;DHT22;26233;51.894;10.192;2024-03-08T09:35:37;15.40;41.10
40534;DHT22;26233;51.894;10.192;2024-03-08T09:38:04;15.50;40.40
40534;DHT22;26233;51.894;10.192;2024-03-08T09:40:31;15.70;40.60
40534;DHT22;26233;51.894;10.192;2024-03-08T09:42:59;15.90;40.20
40534;DHT22;26233;51.894;10.192;2024-03-08T09:45:30;16.00;39.50
40534;DHT22;26233;51.894;10.192;2024-03-08T09:47:59;16.10;39.80
40534;DHT22;26233;51.894;10.192;2024-03-08T09:50:26;16.30;40.40
40534;DHT22;26233;51.894;10.192;2024-03-08T09:52:55;16.50;40.40
40534;DHT22;26233;51.894;10.192;2024-03-08T09:55:25;16.80;40.60
40534;DHT22;26233;51.894;10.192;2024-03-08T09:57:58;16.90;39.90
40534;DHT22;26233;51.894;10.192;2024-03-08T10:01:03;17.10;40.20
40534;DHT22;26233;51.894;10.192;2024-03-08T10:03:32;17.20;40.20
40534;DHT22;26233;51.894;10.192;2024-03-08T10:05:59;17.40;40.10
40534;DHT22;26233;51.894;10.192;2024-03-08T10:08:27;17.60;39.30
40534;DHT22;26233;51.894;10.192;2024-03-08T10:10:56;17.60;38.90
40534;DHT22;26233;51.894;10.192;2024-03-08T10:13:24;17.60;38.20
40534;DHT22;26233;51.894;10.192;2024-03-08T10:15:53;17.60;38.50
40534;DHT22;26233;51.894;10.192;2024-03-08T10:18:22;17.60;38.10
40534;DHT22;26233;51.894;10.192;2024-03-08T10:21:02;17.50;37.90
40534;DHT22;26233;51.894;10.192;2024-03-08T10:23:31;17.50;37.20
40534;DHT22;26233;51.894;10.192;2024-03-08T10:26:09;17.60;38.20
40534;DHT22;26233;51.894;10.192;2024-03-08T10:28:41;17.40;35.00
40534;DHT22;26233;51.894;10.192;2024-03-08T10:31:09;17.40;37.30
40534;DHT22;26233;51.894;10.192;2024-03-08T10:33:38;17.30;36.50
40534;DHT22;26233;51.894;10.192;2024-03-08T10:36:07;17.30;37.00
40534;DHT22;26233;51.894;10.192;2024-03-08T10:38:36;17.20;37.00
40534;DHT22;26233;51.894;10.192;2024-03-08T10:41:07;17.30;37.30
40534;DHT22;26233;51.894;10.192;2024-03-08T10:43:50;17.30;37.70
40534;DHT22;26233;51.894;10.192;2024-03-08T10:46:43;17.30;37.50
40534;DHT22;26233;51.894;10.192;2024-03-08T10:49:26;17.30;36.80
40534;DHT22;26233;51.894;10.192;2024-03-08T10:52:02;17.20;36.60
40534;DHT22;26233;51.894;10.192;2024-03-08T10:54:31;17.20;37.30
40534;DHT22;26233;51.894;10.192;2024-03-08T10:57:01;17.20;37.20
40534;DHT22;26233;51.894;10.192;2024-03-08T10:59:32;17.10;36.70
40534;DHT22;26233;51.894;10.192;2024-03-08T11:01:59;17.00;36.30
40534;DHT22;26233;51.894;10.192;2024-03-08T11:04:28;16.90;36.20
40534;DHT22;26233;51.894;10.192;2024-03-08T11:07:01;16.70;36.20
40534;DHT22;26233;51.894;10.192;2024-03-08T11:09:32;16.60;36.10
40534;DHT22;26233;51.894;10.192;2024-03-08T11:12:19;16.60;36.60
40534;DHT22;26233;51.894;10.192;2024-03-08T11:14:56;16.50;36.90
40534;DHT22;26233;51.894;10.192;2024-03-08T11:17:44;16.70;36.90
40534;DHT22;26233;51.894;10.192;2024-03-08T11:20:15;16.70;36.40
40534;DHT22;26233;51.894;10.192;2024-03-08T11:22:48;16.80;36.70
40534;DHT22;26233;51.894;10.192;2024-03-08T11:25:34;16.80;36.40
40534;DHT22;26233;51.894;10.192;2024-03-08T11:28:11;16.70;35.60
40534;DHT22;26233;51.894;10.192;2024-03-08T11:30:44;16.70;35.90
40534;DHT22;26233;51.894;10.192;2024-03-08T11:33:15;16.60;35.70
40534;DHT22;26233;51.894;10.192;2024-03-08T11:35:43;16.50;35.70
40534;DHT22;26233;51.894;10.192;2024-03-08T11:38:12;16.40;35.30
40534;DHT22;26233;51.894;10.192;2024-03-08T11:40:40;16.30;35.20
40534;DHT22;26233;51.894;10.192;2024-03-08T11:43:08;16.10;34.80
40534;DHT22;26233;51.894;10.192;2024-03-08T11:45:36;15.90;34.90
40534;DHT22;26233;51.894;10.192;2024-03-08T11:48:04;15.70;35.00
40534;DHT22;26233;51.894;10.192;2024-03-08T11:50:31;15.60;35.30
40534;DHT22;26233;51.894;10.192;2024-03-08T11:53:04;15.60;35.00
40534;DHT22;26233;51.894;10.192;2024-03-08T11:55:32;15.50;35.30
40534;DHT22;26233;51.894;10.192;2024-03-08T11:58:02;15.50;35.00
40534;DHT22;26233;51.894;10.192;2024-03-08T12:00:30;15.40;35.40
40534;DHT22;26233;51.894;10.192;2024-03-08T12:03:05;15.40;35.30
40534;DHT22;26233;51.894;10.192;2024-03-08T12:05:33;15.40;35.60
40534;DHT22;26233;51.894;10.192;2024-03-08T12:08:01;15.40;35.50
40534;DHT22;26233;51.894;10.192;2024-03-08T12:10:32;15.30;35.30
40534;DHT22;26233;51.894;10.192;2024-03-08T12:13:00;15.30;35.10
40534;DHT22;26233;51.894;10.192;2024-03-08T12:15:29;15.20;34.70
40534;DHT22;26233;51.894;10.192;2024-03-08T12:17:58;15.20;35.00
40534;DHT22;26233;51.894;10.192;2024-03-08T12:20:27;15.10;34.90
40534;DHT22;26233;51.894;10.192;2024-03-08T12:22:57;15.00;34.70
40534;DHT22;26233;51.894;10.192;2024-03-08T12:25:26;14.90;34.70
40534;DHT22;26233;51.894;10.192;2024-03-08T12:28:07;14.80;35.40
40534;DHT22;26233;51.894;10.192;2024-03-08T12:30:45;14.80;35.20
40534;DHT22;26233;51.894;10.192;2024-03-08T12:33:14;14.70;34.90
40534;DHT22;26233;51.894;10.192;2024-03-08T12:35:50;14.70;35.10
40534;DHT22;26233;51.894;10.192;2024-03-08T12:38:20;14.70;35.00
40534;DHT22;26233;51.894;10.192;2024-03-08T12:40:50;14.80;35.40
40534;DHT22;26233;51.894;10.192;2024-03-08T12:43:24;14.80;35.40
40534;DHT22;26233;51.894;10.192;2024-03-08T12:45:51;14.80;35.40
40534;DHT22;26233;51.894;10.192;2024-03-08T12:48:18;14.80;35.40
40534;DHT22;26233;51.894;10.192;2024-03-08T12:50:46;14.80;35.10
40534;DHT22;26233;51.894;10.192;2024-03-08T12:53:14;14.80;35.40
40534;DHT22;26233;51.894;10.192;2024-03-08T12:55:41;14.80;35.20
40534;DHT22;26233;51.894;10.192;2024-03-08T12:58:09;14.80;34.70
40534;DHT22;26233;51.894;10.192;2024-03-08T13:00:38;14.80;35.10
40534;DHT22;26233;51.894;10.192;2024-03-08T13:03:08;14.70;34.90
40534;DHT22;26233;51.894;10.192;2024-03-08T13:05:36;14.60;34.50
40534;DHT22;26233;51.894;10.192;2024-03-08T13:08:06;14.50;34.50
40534;DHT22;26233;51.894;10.192;2024-03-08T13:10:38;14.50;34.70
40534;DHT22;26233;51.894;10.192;2024-03-08T13:13:05;14.40;35.50
40534;DHT22;26233;51.894;10.192;2024-03-08T13:15:33;14.40;34.90
40534;DHT22;26233;51.894;10.192;2024-03-08T13:18:02;14.30;34.90
40534;DHT22;26233;51.894;10.192;2024-03-08T13:20:31;14.30;35.10
40534;DHT22;26233;51.894;10.192;2024-03-08T13:22:58;14.30;35.00
40534;DHT22;26233;51.894;10.192;2024-03-08T13:25:27;14.40;35.20
40534;DHT22;26233;51.894;10.192;2024-03-08T13:27:54;14.40;35.10
40534;DHT22;26233;51.894;10.192;2024-03-08T13:30:24;14.40;35.10
40534;DHT22;26233;51.894;10.192;2024-03-08T13:32:52;14.40;35.10
40534;DHT22;26233;51.894;10.192;2024-03-08T13:35:21;14.40;35.10
40534;DHT22;26233;51.894;10.192;2024-03-08T13:37:52;14.40;35.60
40534;DHT22;26233;51.894;10.192;2024-03-08T13:40:20;14.40;34.80
40534;DHT22;26233;51.894;10.192;2024-03-08T13:42:47;14.40;34.80
40534;DHT22;26233;51.894;10.192;2024-03-08T13:45:16;14.40;34.60
40534;DHT22;26233;51.894;10.192;2024-03-08T13:47:48;14.30;34.70
40534;DHT22;26233;51.894;10.192;2024-03-08T13:50:17;14.20;34.70
40534;DHT22;26233;51.894;10.192;2024-03-08T13:52:48;14.30;34.80
40534;DHT22;26233;51.894;10.192;2024-03-08T13:55:17;14.20;34.80
40534;DHT22;26233;51.894;10.192;2024-03-08T13:57:44;14.20;34.80
40534;DHT22;26233;51.894;10.192;2024-03-08T14:00:13;14.20;34.70
40534;DHT22;26233;51.894;10.192;2024-03-08T14:02:41;14.10;34.70
40534;DHT22;26233;51.894;10.192;2024-03-08T14:05:09;14.20;34.70
40534;DHT22;26233;51.894;10.192;2024-03-08T14:07:37;14.20;34.60
40534;DHT22;26233;51.894;10.192;2024-03-08T14:10:07;14.20;34.50
40534;DHT22;26233;51.894;10.192;2024-03-08T14:12:35;14.10;34.10
40534;DHT22;26233;51.894;10.192;2024-03-08T14:15:04;14.00;34.00
40534;DHT22;26233;51.894;10.192;2024-03-08T14:17:32;13.90;34.00
40534;DHT22;26233;51.894;10.192;2024-03-08T14:19:59;13.90;34.10
40534;DHT22;26233;51.894;10.192;2024-03-08T14:22:26;13.80;34.30
40534;DHT22;26233;51.894;10.192;2024-03-08T14:24:54;13.70;34.40
40534;DHT22;26233;51.894;10.192;2024-03-08T14:27:23;13.80;34.60
40534;DHT22;26233;51.894;10.192;2024-03-08T14:29:50;13.70;34.50
40534;DHT22;26233;51.894;10.192;2024-03-08T14:32:17;13.70;34.50
40534;DHT22;26233;51.894;10.192;2024-03-08T14:34:45;13.70;34.40
40534;DHT22;26233;51.894;10.192;2024-03-08T14:37:13;13.70;34.00
40534;DHT22;26233;51.894;10.192;2024-03-08T14:39:40;13.60;34.00
40534;DHT22;26233;51.894;10.192;2024-03-08T14:42:07;13.60;33.90
40534;DHT22;26233;51.894;10.192;2024-03-08T14:44:40;13.50;34.00
40534;DHT22;26233;51.894;10.192;2024-03-08T14:47:07;13.40;34.00
40534;DHT22;26233;51.894;10.192;2024-03-08T14:49:36;13.40;34.00
40534;DHT22;26233;51.894;10.192;2024-03-08T14:52:04;13.30;33.90
40534;DHT22;26233;51.894;10.192;2024-03-08T14:54:51;13.30;34.00
40534;DHT22;26233;51.894;10.192;2024-03-08T14:57:19;13.20;34.10
40534;DHT22;26233;51.894;10.192;2024-03-08T14:59:47;13.20;34.20
40534;DHT22;26233;51.894;10.192;2024-03-08T15:02:14;13.20;34.20
40534;DHT22;26233;51.894;10.192;2024-03-08T15:04:45;13.20;34.30
40534;DHT22;26233;51.894;10.192;2024-03-08T15:07:18;13.20;34.40
40534;DHT22;26233;51.894;10.192;2024-03-08T15:09:46;13.20;34.30
40534;DHT22;26233;51.894;10.192;2024-03-08T15:12:13;13.20;34.20
40534;DHT22;26233;51.894;10.192;2024-03-08T15:14:41;13.20;34.20
40534;DHT22;26233;51.894;10.192;2024-03-08T15:17:11;13.10;34.00
40534;DHT22;26233;51.894;10.192;2024-03-08T15:19:47;13.10;34.00
40534;DHT22;26233;51.894;10.192;2024-03-08T15:22:14;13.00;34.00
40534;DHT22;26233;51.894;10.192;2024-03-08T15:24:43;12.90;33.90
40534;DHT22;26233;51.894;10.192;2024-03-08T15:27:10;12.80;33.80
40534;DHT22;26233;51.894;10.192;2024-03-08T15:29:38;12.70;33.80
40534;DHT22;26233;51.894;10.192;2024-03-08T15:32:05;12.60;33.80
40534;DHT22;26233;51.894;10.192;2024-03-08T15:34:37;12.50;33.80